sensor_id;sensor_type;location;lat;lon;timestamp;pressure;altitude;pressure_sealevel;temperature;humidity
59873;BME280;50750;51.636;4.948;2023-02-08T00:01:25;104046.09;;;10.40;59.40
59873;BME280;50750;51.636;4.948;2023-02-08T00:03:52;104042.73;;;10.40;59.36
59873;BME280;50750;51.636;4.948;2023-02-08T00:06:18;104043.95;;;10.39;59.33
59873;BME280;50750;51.636;4.948;2023-02-08T00:08:44;104041.67;;;10.39;59.26
59873;BME280;50750;51.636;4.948;2023-02-08T00:11:11;104042.89;;;10.39;59.32
59873;BME280;50750;51.636;4.948;2023-02-08T00:13:38;104041.49;;;10.39;59.35
59873;BME280;50750;51.636;4.948;2023-02-08T00:16:05;104037.11;;;10.38;59.27
59873;BME280;50750;51.636;4.948;2023-02-08T00:18:31;104036.23;;;10.38;59.28
59873;BME280;50750;51.636;4.948;2023-02-08T00:20:57;104034.30;;;10.38;59.22
59873;BME280;50750;51.636;4.948;2023-02-08T00:23:24;104031.31;;;10.37;59.35
59873;BME280;50750;51.636;4.948;2023-02-08T00:25:50;104031.66;;;10.37;59.25
59873;BME280;50750;51.636;4.948;2023-02-08T00:28:17;104033.56;;;10.36;59.33
59873;BME280;50750;51.636;4.948;2023-02-08T00:30:44;104035.67;;;10.36;59.32
59873;BME280;50750;51.636;4.948;2023-02-08T00:33:10;104034.95;;;10.36;59.22
59873;BME280;50750;51.636;4.948;2023-02-08T00:35:36;104028.64;;;10.35;59.28
59873;BME280;50750;51.636;4.948;2023-02-08T00:38:03;104025.14;;;10.35;59.32
59873;BME280;50750;51.636;4.948;2023-02-08T00:40:29;104024.08;;;10.35;59.32
59873;BME280;50750;51.636;4.948;2023-02-08T00:42:55;104027.39;;;10.34;59.24
59873;BME280;50750;51.636;4.948;2023-02-08T00:45:20;104026.33;;;10.34;59.22
59873;BME280;50750;51.636;4.948;2023-02-08T00:47:46;104021.41;;;10.34;59.20
59873;BME280;50750;51.636;4.948;2023-02-08T00:50:12;104018.95;;;10.33;59.23
59873;BME280;50750;51.636;4.948;2023-02-08T00:52:38;104017.91;;;10.33;59.30
59873;BME280;50750;51.636;4.948;2023-02-08T00:55:05;104014.21;;;10.32;59.30
59873;BME280;50750;51.636;4.948;2023-02-08T00:57:32;104013.52;;;10.32;59.32
59873;BME280;50750;51.636;4.948;2023-02-08T00:59:58;104009.29;;;10.32;59.31
59873;BME280;50750;51.636;4.948;2023-02-08T01:02:25;104005.61;;;10.31;59.27
59873;BME280;50750;51.636;4.948;2023-02-08T01:04:51;104004.36;;;10.31;59.34
59873;BME280;50750;51.636;4.948;2023-02-08T01:07:17;103999.63;;;10.30;59.18
59873;BME280;50750;51.636;4.948;2023-02-08T01:09:43;104000.50;;;10.30;59.18
59873;BME280;50750;51.636;4.948;2023-02-08T01:12:09;104003.81;;;10.30;59.23
59873;BME280;50750;51.636;4.948;2023-02-08T01:14:39;104002.40;;;10.29;59.21
59873;BME280;50750;51.636;4.948;2023-02-08T01:17:05;104002.55;;;10.28;59.33
59873;BME280;50750;51.636;4.948;2023-02-08T01:19:31;104005.17;;;10.28;59.15
59873;BME280;50750;51.636;4.948;2023-02-08T01:21:58;104008.33;;;10.28;59.21
59873;BME280;50750;51.636;4.948;2023-02-08T01:24:24;104009.34;;;10.27;59.24
59873;BME280;50750;51.636;4.948;2023-02-08T01:26:50;104006.01;;;10.26;59.28
59873;BME280;50750;51.636;4.948;2023-02-08T01:29:16;104008.26;;;10.26;59.24
59873;BME280;50750;51.636;4.948;2023-02-08T01:31:43;104011.23;;;10.26;59.19
59873;BME280;50750;51.636;4.948;2023-02-08T01:34:10;104004.73;;;10.25;59.23
59873;BME280;50750;51.636;4.948;2023-02-08T01:36:38;104005.08;;;10.25;59.19
59873;BME280;50750;51.636;4.948;2023-02-08T01:39:05;104003.50;;;10.25;59.27
59873;BME280;50750;51.636;4.948;2023-02-08T01:41:35;104002.80;;;10.24;59.22
59873;BME280;50750;51.636;4.948;2023-02-08T01:46:35;104007.67;;;10.23;59.17
59873;BME280;50750;51.636;4.948;2023-02-08T01:51:43;104006.44;;;10.23;59.24
59873;BME280;50750;51.636;4.948;2023-02-08T01:54:11;104003.45;;;10.22;59.21
59873;BME280;50750;51.636;4.948;2023-02-08T01:56:42;103998.19;;;10.22;59.20
59873;BME280;50750;51.636;4.948;2023-02-08T01:59:18;103998.71;;;10.22;59.18
59873;BME280;50750;51.636;4.948;2023-02-08T02:01:45;103998.86;;;10.21;59.17
59873;BME280;50750;51.636;4.948;2023-02-08T02:04:13;103996.95;;;10.21;59.12
59873;BME280;50750;51.636;4.948;2023-02-08T02:06:42;103992.38;;;10.21;59.12
59873;BME280;50750;51.636;4.948;2023-02-08T02:09:16;103996.40;;;10.20;59.17
59873;BME280;50750;51.636;4.948;2023-02-08T02:11:44;103990.08;;;10.19;59.16
59873;BME280;50750;51.636;4.948;2023-02-08T02:14:11;103989.73;;;10.19;59.23
59873;BME280;50750;51.636;4.948;2023-02-08T02:16:37;103985.88;;;10.19;59.20
59873;BME280;50750;51.636;4.948;2023-02-08T02:19:05;103983.05;;;10.18;59.14
59873;BME280;50750;51.636;4.948;2023-02-08T02:25:08;103980.58;;;10.17;59.13
59873;BME280;50750;51.636;4.948;2023-02-08T02:28:24;103980.56;;;10.17;59.08
59873;BME280;50750;51.636;4.948;2023-02-08T02:33:57;103985.27;;;10.15;59.14
59873;BME280;50750;51.636;4.948;2023-02-08T02:39:46;103983.13;;;10.14;59.20
59873;BME280;50750;51.636;4.948;2023-02-08T02:42:41;103983.80;;;10.12;59.12
59873;BME280;50750;51.636;4.948;2023-02-08T02:45:38;103980.31;;;10.13;59.12
59873;BME280;50750;51.636;4.948;2023-02-08T02:50:44;103982.39;;;10.12;59.07
59873;BME280;50750;51.636;4.948;2023-02-08T02:53:25;103982.56;;;10.11;59.15
59873;BME280;50750;51.636;4.948;2023-02-08T02:56:02;103974.66;;;10.11;59.09
59873;BME280;50750;51.636;4.948;2023-02-08T02:58:30;103973.96;;;10.11;59.12
59873;BME280;50750;51.636;4.948;2023-02-08T03:00:58;103974.65;;;10.10;59.03
59873;BME280;50750;51.636;4.948;2023-02-08T03:03:27;103972.01;;;10.10;59.06
59873;BME280;50750;51.636;4.948;2023-02-08T03:06:03;103965.52;;;10.09;59.04
59873;BME280;50750;51.636;4.948;2023-02-08T03:11:36;103962.89;;;10.09;59.05
59873;BME280;50750;51.636;4.948;2023-02-08T03:19:30;103972.31;;;10.08;59.01
59873;BME280;50750;51.636;4.948;2023-02-08T03:22:19;103966.69;;;10.06;58.98
59873;BME280;50750;51.636;4.948;2023-02-08T03:24:59;103970.36;;;10.06;59.06
59873;BME280;50750;51.636;4.948;2023-02-08T03:27:31;103973.86;;;10.06;59.02
59873;BME280;50750;51.636;4.948;2023-02-08T03:30:13;103970.52;;;10.06;58.99
59873;BME280;50750;51.636;4.948;2023-02-08T03:32:55;103972.81;;;10.06;59.19
59873;BME280;50750;51.636;4.948;2023-02-08T03:35:37;103971.58;;;10.05;58.94
59873;BME280;50750;51.636;4.948;2023-02-08T03:38:10;103971.20;;;10.05;59.02
59873;BME280;50750;51.636;4.948;2023-02-08T03:40:44;103972.42;;;10.04;58.94
59873;BME280;50750;51.636;4.948;2023-02-08T03:43:31;103970.33;;;10.04;59.00
59873;BME280;50750;51.636;4.948;2023-02-08T03:48:28;103970.48;;;10.04;59.05
59873;BME280;50750;51.636;4.948;2023-02-08T03:50:57;103968.54;;;10.03;59.03
59873;BME280;50750;51.636;4.948;2023-02-08T03:53:26;103969.41;;;10.02;58.88
59873;BME280;50750;51.636;4.948;2023-02-08T03:55:59;103967.14;;;10.03;58.91
59873;BME280;50750;51.636;4.948;2023-02-08T03:59:15;103968.15;;;10.02;58.99
59873;BME280;50750;51.636;4.948;2023-02-08T04:01:26;103967.27;;;10.02;58.93
59873;BME280;50750;51.636;4.948;2023-02-08T04:03:55;103970.41;;;10.01;59.00
59873;BME280;50750;51.636;4.948;2023-02-08T04:06:22;103970.06;;;10.01;58.90
59873;BME280;50750;51.636;4.948;2023-02-08T04:08:48;103968.14;;;10.01;58.98
59873;BME280;50750;51.636;4.948;2023-02-08T04:11:15;103966.56;;;10.00;58.90
59873;BME280;50750;51.636;4.948;2023-02-08T04:13:41;103964.63;;;10.00;58.84
59873;BME280;50750;51.636;4.948;2023-02-08T04:16:10;103964.24;;;9.99;58.94
59873;BME280;50750;51.636;4.948;2023-02-08T04:18:36;103961.98;;;10.00;58.89
59873;BME280;50750;51.636;4.948;2023-02-08T04:21:02;103957.23;;;9.99;58.80
59873;BME280;50750;51.636;4.948;2023-02-08T04:23:29;103958.98;;;9.98;58.87
59873;BME280;50750;51.636;4.948;2023-02-08T04:25:54;103963.00;;;9.98;58.75
59873;BME280;50750;51.636;4.948;2023-02-08T04:28:20;103964.58;;;9.98;58.87
59873;BME280;50750;51.636;4.948;2023-02-08T04:30:46;103967.55;;;9.98;58.85
59873;BME280;50750;51.636;4.948;2023-02-08T04:33:12;103968.94;;;9.97;58.88
59873;BME280;50750;51.636;4.948;2023-02-08T04:35:42;103968.92;;;9.97;58.74
59873;BME280;50750;51.636;4.948;2023-02-08T04:38:08;103965.05;;;9.96;58.81
59873;BME280;50750;51.636;4.948;2023-02-08T04:40:34;103963.30;;;9.96;58.83
59873;BME280;50750;51.636;4.948;2023-02-08T04:43:00;103960.31;;;9.95;58.80
59873;BME280;50750;51.636;4.948;2023-02-08T04:45:27;103959.98;;;9.95;58.82
59873;BME280;50750;51.636;4.948;2023-02-08T04:47:54;103955.94;;;9.94;58.78
59873;BME280;50750;51.636;4.948;2023-02-08T04:50:20;103957.52;;;9.94;58.75
59873;BME280;50750;51.636;4.948;2023-02-08T04:52:46;103959.07;;;9.94;58.73
59873;BME280;50750;51.636;4.948;2023-02-08T04:55:12;103964.14;;;9.94;58.72
59873;BME280;50750;51.636;4.948;2023-02-08T04:57:38;103966.40;;;9.93;58.73
59873;BME280;50750;51.636;4.948;2023-02-08T05:00:04;103963.94;;;9.93;58.66
59873;BME280;50750;51.636;4.948;2023-02-08T05:02:31;103964.48;;;9.93;58.63
59873;BME280;50750;51.636;4.948;2023-02-08T05:04:56;103961.66;;;9.92;58.67
59873;BME280;50750;51.636;4.948;2023-02-08T05:07:22;103958.51;;;9.92;58.71
59873;BME280;50750;51.636;4.948;2023-02-08T05:09:48;103956.92;;;9.91;58.70
59873;BME280;50750;51.636;4.948;2023-02-08T05:12:14;103953.25;;;9.92;58.67
59873;BME280;50750;51.636;4.948;2023-02-08T05:14:40;103951.63;;;9.91;58.63
59873;BME280;50750;51.636;4.948;2023-02-08T05:17:06;103947.77;;;9.90;58.74
59873;BME280;50750;51.636;4.948;2023-02-08T05:19:32;103947.95;;;9.90;58.69
59873;BME280;50750;51.636;4.948;2023-02-08T05:21:58;103946.73;;;9.90;58.65
59873;BME280;50750;51.636;4.948;2023-02-08T05:24:23;103942.17;;;9.90;58.63
59873;BME280;50750;51.636;4.948;2023-02-08T05:26:49;103946.89;;;9.89;58.69
59873;BME280;50750;51.636;4.948;2023-02-08T05:29:15;103949.34;;;9.89;58.67
59873;BME280;50750;51.636;4.948;2023-02-08T05:31:41;103946.50;;;9.88;58.66
59873;BME280;50750;51.636;4.948;2023-02-08T05:34:07;103945.98;;;9.88;58.73
59873;BME280;50750;51.636;4.948;2023-02-08T05:36:33;103943.52;;;9.87;58.78
59873;BME280;50750;51.636;4.948;2023-02-08T05:38:59;103940.52;;;9.87;58.65
59873;BME280;50750;51.636;4.948;2023-02-08T05:41:25;103939.30;;;9.87;58.55
59873;BME280;50750;51.636;4.948;2023-02-08T05:43:51;103939.44;;;9.85;58.52
59873;BME280;50750;51.636;4.948;2023-02-08T05:46:17;103940.31;;;9.85;58.60
59873;BME280;50750;51.636;4.948;2023-02-08T05:48:42;103939.45;;;9.86;58.64
59873;BME280;50750;51.636;4.948;2023-02-08T05:51:08;103934.19;;;9.85;58.59
59873;BME280;50750;51.636;4.948;2023-02-08T05:53:34;103935.75;;;9.84;58.64
59873;BME280;50750;51.636;4.948;2023-02-08T05:56:01;103936.45;;;9.84;58.57
59873;BME280;50750;51.636;4.948;2023-02-08T05:58:27;103933.64;;;9.84;58.68
59873;BME280;50750;51.636;4.948;2023-02-08T06:00:53;103934.33;;;9.83;58.77
59873;BME280;50750;51.636;4.948;2023-02-08T06:03:19;103935.20;;;9.83;58.57
59873;BME280;50750;51.636;4.948;2023-02-08T06:05:45;103937.98;;;9.83;58.60
59873;BME280;50750;51.636;4.948;2023-02-08T06:08:11;103941.83;;;9.83;58.53
59873;BME280;50750;51.636;4.948;2023-02-08T06:10:37;103945.34;;;9.83;58.54
59873;BME280;50750;51.636;4.948;2023-02-08T06:13:03;103950.73;;;9.82;58.64
59873;BME280;50750;51.636;4.948;2023-02-08T06:15:29;103952.66;;;9.82;58.51
59873;BME280;50750;51.636;4.948;2023-02-08T06:17:55;103951.08;;;9.81;58.54
59873;BME280;50750;51.636;4.948;2023-02-08T06:20:21;103949.51;;;9.81;58.45
59873;BME280;50750;51.636;4.948;2023-02-08T06:22:47;103948.60;;;9.80;58.47
59873;BME280;50750;51.636;4.948;2023-02-08T06:25:13;103953.32;;;9.80;58.43
59873;BME280;50750;51.636;4.948;2023-02-08T06:27:39;103952.09;;;9.80;58.45
59873;BME280;50750;51.636;4.948;2023-02-08T06:30:05;103952.27;;;9.80;58.43
59873;BME280;50750;51.636;4.948;2023-02-08T06:32:31;103948.75;;;9.79;58.47
59873;BME280;50750;51.636;4.948;2023-02-08T06:34:57;103948.92;;;9.79;58.46
59873;BME280;50750;51.636;4.948;2023-02-08T06:37:23;103948.73;;;9.78;58.51
59873;BME280;50750;51.636;4.948;2023-02-08T06:39:49;103943.47;;;9.78;58.36
59873;BME280;50750;51.636;4.948;2023-02-08T06:42:14;103938.37;;;9.76;58.37
59873;BME280;50750;51.636;4.948;2023-02-08T06:44:40;103936.61;;;9.76;58.41
59873;BME280;50750;51.636;4.948;2023-02-08T06:47:06;103939.05;;;9.76;58.36
59873;BME280;50750;51.636;4.948;2023-02-08T06:49:32;103937.80;;;9.75;58.42
59873;BME280;50750;51.636;4.948;2023-02-08T06:51:58;103939.89;;;9.74;58.38
59873;BME280;50750;51.636;4.948;2023-02-08T06:54:24;103940.60;;;9.74;57.92
59873;BME280;50750;51.636;4.948;2023-02-08T06:56:50;103939.51;;;9.65;53.32
59873;BME280;50750;51.636;4.948;2023-02-08T06:59:16;103944.77;;;9.58;53.54
59873;BME280;50750;51.636;4.948;2023-02-08T07:01:41;103948.38;;;9.55;54.26
59873;BME280;50750;51.636;4.948;2023-02-08T07:04:08;103951.29;;;9.52;54.82
59873;BME280;50750;51.636;4.948;2023-02-08T07:06:34;103948.98;;;9.51;55.11
59873;BME280;50750;51.636;4.948;2023-02-08T07:09:00;103950.72;;;9.50;55.51
59873;BME280;50750;51.636;4.948;2023-02-08T07:11:27;103954.22;;;9.50;55.90
59873;BME280;50750;51.636;4.948;2023-02-08T07:13:53;103953.15;;;9.50;56.08
59873;BME280;50750;51.636;4.948;2023-02-08T07:16:20;103952.80;;;9.50;56.15
59873;BME280;50750;51.636;4.948;2023-02-08T07:18:46;103951.04;;;9.49;56.43
59873;BME280;50750;51.636;4.948;2023-02-08T07:21:12;103951.73;;;9.49;56.49
59873;BME280;50750;51.636;4.948;2023-02-08T07:23:38;103947.56;;;9.50;56.68
59873;BME280;50750;51.636;4.948;2023-02-08T07:26:07;103943.70;;;9.50;56.72
59873;BME280;50750;51.636;4.948;2023-02-08T07:28:34;103941.43;;;9.49;56.84
59873;BME280;50750;51.636;4.948;2023-02-08T07:31:08;103940.90;;;9.49;57.04
59873;BME280;50750;51.636;4.948;2023-02-08T07:33:35;103938.80;;;9.49;57.18
59873;BME280;50750;51.636;4.948;2023-02-08T07:36:01;103938.80;;;9.49;57.09
59873;BME280;50750;51.636;4.948;2023-02-08T07:38:31;103939.32;;;9.49;57.22
59873;BME280;50750;51.636;4.948;2023-02-08T07:41:24;103938.45;;;9.50;57.28
59873;BME280;50750;51.636;4.948;2023-02-08T07:43:50;103933.73;;;9.49;57.31
59873;BME280;50750;51.636;4.948;2023-02-08T07:46:18;103932.33;;;9.49;57.48
59873;BME280;50750;51.636;4.948;2023-02-08T07:48:45;103932.85;;;9.49;57.47
59873;BME280;50750;51.636;4.948;2023-02-08T07:51:11;103928.48;;;9.49;57.51
59873;BME280;50750;51.636;4.948;2023-02-08T07:53:38;103930.05;;;9.49;57.46
59873;BME280;50750;51.636;4.948;2023-02-08T07:56:04;103932.14;;;9.49;57.50
59873;BME280;50750;51.636;4.948;2023-02-08T07:58:30;103933.19;;;9.49;57.58
59873;BME280;50750;51.636;4.948;2023-02-08T08:00:58;103931.10;;;9.49;57.56
59873;BME280;50750;51.636;4.948;2023-02-08T08:03:24;103935.81;;;9.49;57.69
59873;BME280;50750;51.636;4.948;2023-02-08T08:05:50;103938.96;;;9.49;57.68
59873;BME280;50750;51.636;4.948;2023-02-08T08:08:16;103939.84;;;9.48;57.78
59873;BME280;50750;51.636;4.948;2023-02-08T08:10:42;103943.66;;;9.48;57.68
59873;BME280;50750;51.636;4.948;2023-02-08T08:13:09;103944.00;;;9.48;57.75
59873;BME280;50750;51.636;4.948;2023-02-08T08:15:35;103950.99;;;9.48;57.80
59873;BME280;50750;51.636;4.948;2023-02-08T08:18:01;103953.11;;;9.48;57.82
59873;BME280;50750;51.636;4.948;2023-02-08T08:20:27;103946.28;;;9.48;57.91
59873;BME280;50750;51.636;4.948;2023-02-08T08:22:52;103944.02;;;9.48;57.88
59873;BME280;50750;51.636;4.948;2023-02-08T08:25:18;103937.87;;;9.47;57.88
59873;BME280;50750;51.636;4.948;2023-02-08T08:27:44;103935.08;;;9.47;57.84
59873;BME280;50750;51.636;4.948;2023-02-08T08:30:13;103937.52;;;9.47;57.84
59873;BME280;50750;51.636;4.948;2023-02-08T08:32:40;103936.99;;;9.47;57.93
59873;BME280;50750;51.636;4.948;2023-02-08T08:35:06;103935.07;;;9.47;58.01
59873;BME280;50750;51.636;4.948;2023-02-08T08:37:33;103932.09;;;9.47;58.10
59873;BME280;50750;51.636;4.948;2023-02-08T08:39:59;103932.79;;;9.46;58.08
59873;BME280;50750;51.636;4.948;2023-02-08T08:42:25;103932.27;;;9.46;58.13
59873;BME280;50750;51.636;4.948;2023-02-08T08:44:52;103933.31;;;9.46;58.09
59873;BME280;50750;51.636;4.948;2023-02-08T08:47:18;103935.41;;;9.46;58.15
59873;BME280;50750;51.636;4.948;2023-02-08T08:49:44;103935.75;;;9.46;58.09
59873;BME280;50750;51.636;4.948;2023-02-08T08:52:11;103934.17;;;9.46;58.21
59873;BME280;50750;51.636;4.948;2023-02-08T08:54:37;103935.55;;;9.46;58.13
59873;BME280;50750;51.636;4.948;2023-02-08T08:57:04;103940.45;;;9.45;58.20
59873;BME280;50750;51.636;4.948;2023-02-08T08:59:31;103937.81;;;9.45;58.29
59873;BME280;50750;51.636;4.948;2023-02-08T09:01:57;103936.95;;;9.45;58.26
59873;BME280;50750;51.636;4.948;2023-02-08T09:04:23;103937.80;;;9.44;58.25
59873;BME280;50750;51.636;4.948;2023-02-08T09:06:50;103937.80;;;9.44;58.30
59873;BME280;50750;51.636;4.948;2023-02-08T09:09:17;103934.83;;;9.45;58.28
59873;BME280;50750;51.636;4.948;2023-02-08T09:11:44;103931.16;;;9.44;58.34
59873;BME280;50750;51.636;4.948;2023-02-08T09:14:10;103928.52;;;9.44;58.40
59873;BME280;50750;51.636;4.948;2023-02-08T09:16:37;103922.39;;;9.44;58.47
59873;BME280;50750;51.636;4.948;2023-02-08T09:19:06;103918.38;;;9.44;58.47
59873;BME280;50750;51.636;4.948;2023-02-08T09:21:34;103914.88;;;9.44;58.39
59873;BME280;50750;51.636;4.948;2023-02-08T09:24:00;103910.15;;;9.43;58.45
59873;BME280;50750;51.636;4.948;2023-02-08T09:26:27;103912.95;;;9.43;58.38
59873;BME280;50750;51.636;4.948;2023-02-08T09:28:53;103916.42;;;9.43;58.60
59873;BME280;50750;51.636;4.948;2023-02-08T09:33:49;103919.58;;;9.43;58.59
59873;BME280;50750;51.636;4.948;2023-02-08T09:36:16;103918.69;;;9.43;58.63
59873;BME280;50750;51.636;4.948;2023-02-08T09:38:43;103924.64;;;9.43;58.66
59873;BME280;50750;51.636;4.948;2023-02-08T09:47:13;103922.90;;;9.43;58.82
59873;BME280;50750;51.636;4.948;2023-02-08T09:50:31;103925.85;;;9.42;58.72
59873;BME280;50750;51.636;4.948;2023-02-08T09:53:12;103929.17;;;9.42;58.85
59873;BME280;50750;51.636;4.948;2023-02-08T09:55:43;103932.48;;;9.41;58.85
59873;BME280;50750;51.636;4.948;2023-02-08T09:58:28;103932.30;;;9.41;58.87
59873;BME280;50750;51.636;4.948;2023-02-08T10:00:56;103935.11;;;9.41;58.78
59873;BME280;50750;51.636;4.948;2023-02-08T10:05:54;103937.55;;;9.41;59.03
59873;BME280;50750;51.636;4.948;2023-02-08T10:08:20;103939.13;;;9.41;59.03
59873;BME280;50750;51.636;4.948;2023-02-08T10:10:54;103936.15;;;9.41;59.05
59873;BME280;50750;51.636;4.948;2023-02-08T10:16:12;103933.33;;;9.39;57.01
59873;BME280;50750;51.636;4.948;2023-02-08T10:19:05;103931.04;;;9.32;52.80
59873;BME280;50750;51.636;4.948;2023-02-08T10:25:01;103924.28;;;9.06;50.13
59873;BME280;50750;51.636;4.948;2023-02-08T10:30:27;103928.59;;;8.83;49.19
59873;BME280;50750;51.636;4.948;2023-02-08T10:33:12;103931.32;;;8.74;48.82
59873;BME280;50750;51.636;4.948;2023-02-08T10:35:47;103939.64;;;8.65;48.36
59873;BME280;50750;51.636;4.948;2023-02-08T10:38:25;103941.36;;;8.58;48.08
59873;BME280;50750;51.636;4.948;2023-02-08T10:40:57;103938.36;;;8.51;48.01
59873;BME280;50750;51.636;4.948;2023-02-08T10:46:29;103928.58;;;8.38;47.79
59873;BME280;50750;51.636;4.948;2023-02-08T10:51:33;103930.21;;;8.35;49.22
59873;BME280;50750;51.636;4.948;2023-02-08T10:53:59;103927.27;;;8.36;49.88
59873;BME280;50750;51.636;4.948;2023-02-08T10:58:57;103917.95;;;8.39;51.21
59873;BME280;50750;51.636;4.948;2023-02-08T11:01:27;103914.69;;;8.41;51.79
59873;BME280;50750;51.636;4.948;2023-02-08T11:04:06;103915.61;;;8.43;52.27
59873;BME280;50750;51.636;4.948;2023-02-08T11:06:32;103915.33;;;8.45;52.70
59873;BME280;50750;51.636;4.948;2023-02-08T11:08:58;103912.77;;;8.47;53.01
59873;BME280;50750;51.636;4.948;2023-02-08T11:11:25;103914.58;;;8.49;53.40
59873;BME280;50750;51.636;4.948;2023-02-08T11:14:06;103912.71;;;8.52;53.75
59873;BME280;50750;51.636;4.948;2023-02-08T11:16:33;103910.85;;;8.54;53.91
59873;BME280;50750;51.636;4.948;2023-02-08T11:18:59;103908.13;;;8.56;54.21
59873;BME280;50750;51.636;4.948;2023-02-08T11:21:36;103902.76;;;8.58;54.42
59873;BME280;50750;51.636;4.948;2023-02-08T11:24:32;103899.52;;;8.60;54.57
59873;BME280;50750;51.636;4.948;2023-02-08T11:27:33;103893.83;;;8.62;54.78
59873;BME280;50750;51.636;4.948;2023-02-08T11:32:40;103888.13;;;8.66;54.95
59873;BME280;50750;51.636;4.948;2023-02-08T11:35:25;103886.07;;;8.68;54.84
59873;BME280;50750;51.636;4.948;2023-02-08T11:37:53;103885.30;;;8.71;55.08
59873;BME280;50750;51.636;4.948;2023-02-08T11:40:24;103882.02;;;8.73;55.27
59873;BME280;50750;51.636;4.948;2023-02-08T11:42:53;103881.01;;;8.74;55.55
59873;BME280;50750;51.636;4.948;2023-02-08T11:45:29;103881.93;;;8.76;55.63
59873;BME280;50750;51.636;4.948;2023-02-08T11:47:56;103876.71;;;8.77;55.86
59873;BME280;50750;51.636;4.948;2023-02-08T11:50:30;103871.35;;;8.79;55.92
59873;BME280;50750;51.636;4.948;2023-02-08T11:53:05;103863.70;;;8.81;56.02
59873;BME280;50750;51.636;4.948;2023-02-08T11:55:32;103859.55;;;8.82;56.19
59873;BME280;50750;51.636;4.948;2023-02-08T11:58:23;103862.73;;;8.84;56.26
59873;BME280;50750;51.636;4.948;2023-02-08T12:01:16;103860.51;;;8.86;56.41
59873;BME280;50750;51.636;4.948;2023-02-08T12:03:43;103857.59;;;8.89;56.40
59873;BME280;50750;51.636;4.948;2023-02-08T12:22:14;103836.38;;;9.00;56.98
59873;BME280;50750;51.636;4.948;2023-02-08T12:41:31;103802.20;;;9.11;57.31
59873;BME280;50750;51.636;4.948;2023-02-08T12:50:06;103789.00;;;9.15;57.30
59873;BME280;50750;51.636;4.948;2023-02-08T12:52:36;103783.98;;;9.17;57.50
59873;BME280;50750;51.636;4.948;2023-02-08T12:57:43;103766.17;;;9.18;57.51
59873;BME280;50750;51.636;4.948;2023-02-08T13:03:11;103751.55;;;9.21;57.58
59873;BME280;50750;51.636;4.948;2023-02-08T13:05:45;103747.58;;;9.23;57.63
59873;BME280;50750;51.636;4.948;2023-02-08T13:11:01;103742.91;;;9.26;57.69
59873;BME280;50750;51.636;4.948;2023-02-08T13:13:33;103744.01;;;9.27;57.60
59873;BME280;50750;51.636;4.948;2023-02-08T13:16:06;103742.80;;;9.29;57.71
59873;BME280;50750;51.636;4.948;2023-02-08T13:18:40;103736.36;;;9.29;57.81
59873;BME280;50750;51.636;4.948;2023-02-08T13:21:28;103734.98;;;9.31;57.82
59873;BME280;50750;51.636;4.948;2023-02-08T13:23:57;103734.14;;;9.33;57.82
59873;BME280;50750;51.636;4.948;2023-02-08T13:26:30;103737.31;;;9.34;57.92
59873;BME280;50750;51.636;4.948;2023-02-08T13:28:59;103735.45;;;9.36;57.92
59873;BME280;50750;51.636;4.948;2023-02-08T13:31:40;103731.79;;;9.37;57.86
59873;BME280;50750;51.636;4.948;2023-02-08T13:34:26;103730.42;;;9.39;57.89
59873;BME280;50750;51.636;4.948;2023-02-08T13:36:59;103729.91;;;9.40;57.88
59873;BME280;50750;51.636;4.948;2023-02-08T13:39:40;103722.44;;;9.41;57.96
59873;BME280;50750;51.636;4.948;2023-02-08T13:42:18;103718.42;;;9.42;57.94
59873;BME280;50750;51.636;4.948;2023-02-08T13:44:53;103720.20;;;9.43;58.08
59873;BME280;50750;51.636;4.948;2023-02-08T13:47:32;103712.88;;;9.45;58.03
59873;BME280;50750;51.636;4.948;2023-02-08T13:50:01;103708.88;;;9.46;57.95
59873;BME280;50750;51.636;4.948;2023-02-08T14:03:25;103690.96;;;9.51;57.96
59873;BME280;50750;51.636;4.948;2023-02-08T14:06:14;103691.34;;;9.53;58.02
59873;BME280;50750;51.636;4.948;2023-02-08T14:14:14;103681.77;;;9.55;58.11
59873;BME280;50750;51.636;4.948;2023-02-08T14:16:43;103680.04;;;9.56;58.06
59873;BME280;50750;51.636;4.948;2023-02-08T14:22:00;103683.92;;;9.57;58.16
59873;BME280;50750;51.636;4.948;2023-02-08T14:24:47;103677.29;;;9.59;58.26
59873;BME280;50750;51.636;4.948;2023-02-08T14:32:43;103674.70;;;9.61;58.23
59873;BME280;50750;51.636;4.948;2023-02-08T14:35:24;103672.27;;;9.61;58.15
59873;BME280;50750;51.636;4.948;2023-02-08T14:38:29;103665.11;;;9.62;58.17
59873;BME280;50750;51.636;4.948;2023-02-08T14:43:32;103666.36;;;9.63;58.19
59873;BME280;50750;51.636;4.948;2023-02-08T14:49:15;103659.38;;;9.65;58.13
59873;BME280;50750;51.636;4.948;2023-02-08T14:51:48;103652.92;;;9.66;58.31
59873;BME280;50750;51.636;4.948;2023-02-08T14:54:34;103650.31;;;9.65;58.25
59873;BME280;50750;51.636;4.948;2023-02-08T14:59:47;103646.14;;;9.68;58.27
59873;BME280;50750;51.636;4.948;2023-02-08T15:02:19;103642.47;;;9.68;58.25
59873;BME280;50750;51.636;4.948;2023-02-08T15:04:46;103634.27;;;9.68;58.24
59873;BME280;50750;51.636;4.948;2023-02-08T15:07:20;103633.04;;;9.69;58.25
59873;BME280;50750;51.636;4.948;2023-02-08T15:09:51;103624.84;;;9.70;58.34
59873;BME280;50750;51.636;4.948;2023-02-08T15:12:32;103618.56;;;9.70;58.32
59873;BME280;50750;51.636;4.948;2023-02-08T15:15:00;103611.39;;;9.71;58.30
59873;BME280;50750;51.636;4.948;2023-02-08T15:19:56;103601.61;;;9.72;58.47
59873;BME280;50750;51.636;4.948;2023-02-08T15:24:54;103592.02;;;9.73;58.41
59873;BME280;50750;51.636;4.948;2023-02-08T15:27:29;103585.54;;;9.74;58.35
59873;BME280;50750;51.636;4.948;2023-02-08T15:29:56;103586.07;;;9.74;58.47
59873;BME280;50750;51.636;4.948;2023-02-08T15:32:23;103581.34;;;9.75;58.39
59873;BME280;50750;51.636;4.948;2023-02-08T15:34:55;103578.92;;;9.76;58.42
59873;BME280;50750;51.636;4.948;2023-02-08T15:37:22;103572.45;;;9.76;58.34